createdAt,value
2022-10-18T00:00:07.546Z,15.20
2022-10-18T00:02:34.491Z,15.60
2022-10-18T00:05:01.396Z,15.43
2022-10-18T00:07:28.405Z,14.88
2022-10-18T00:09:55.336Z,16.27
2022-10-18T00:12:22.089Z,15.57
2022-10-18T00:14:50.946Z,16.05
2022-10-18T00:17:17.899Z,16.17
2022-10-18T00:19:44.822Z,16.23
2022-10-18T00:22:11.619Z,15.55
2022-10-18T00:24:38.380Z,15.15
2022-10-18T00:27:05.095Z,16.92
2022-10-18T00:29:31.859Z,15.65
2022-10-18T00:31:58.624Z,15.65
2022-10-18T00:34:25.554Z,15.30
2022-10-18T00:36:52.324Z,15.48
2022-10-18T00:39:21.499Z,15.48
2022-10-18T00:41:49.235Z,16.20
2022-10-18T00:44:15.938Z,16.02
2022-10-18T00:46:45.702Z,14.98
2022-10-18T00:49:35.772Z,16.83
2022-10-18T00:52:17.892Z,16.13
2022-10-18T00:57:13.511Z,16.40
2022-10-18T00:59:41.667Z,16.92
2022-10-18T01:02:09.143Z,17.63
2022-10-18T01:04:36.268Z,17.30
2022-10-18T01:07:25.736Z,17.50
2022-10-18T01:09:52.457Z,17.52
2022-10-18T01:13:05.075Z,17.83
2022-10-18T01:18:10.609Z,18.05
2022-10-18T01:21:25.079Z,18.35
2022-10-18T01:24:25.428Z,18.35
2022-10-18T01:27:18.235Z,17.67
2022-10-18T01:30:23.434Z,17.90
2022-10-18T01:32:56.221Z,19.17
2022-10-18T01:35:33.946Z,19.40
2022-10-18T01:38:05.332Z,17.45
2022-10-18T01:40:33.385Z,18.38
2022-10-18T01:43:01.738Z,18.95
2022-10-18T01:45:29.138Z,18.67
2022-10-18T01:47:56.788Z,18.58
2022-10-18T01:50:32.582Z,19.35
2022-10-18T01:52:59.972Z,19.20
2022-10-18T01:55:43.181Z,18.42
2022-10-18T01:58:28.717Z,18.83
2022-10-18T02:01:05.446Z,19.23
2022-10-18T02:03:34.923Z,17.75
2022-10-18T02:06:21.745Z,18.20
2022-10-18T02:09:02.530Z,17.77
2022-10-18T02:11:31.341Z,17.90
2022-10-18T02:14:07.564Z,17.27
2022-10-18T02:16:50.419Z,17.08
2022-10-18T02:19:31.563Z,16.95
2022-10-18T02:22:00.066Z,17.30
2022-10-18T02:24:35.941Z,16.60
2022-10-18T02:27:03.559Z,16.70
2022-10-18T02:29:32.001Z,15.57
2022-10-18T02:32:11.636Z,17.30
2022-10-18T02:34:43.206Z,15.57
2022-10-18T02:37:11.451Z,17.88
2022-10-18T02:39:48.685Z,17.73
2022-10-18T02:42:16.195Z,16.35
2022-10-18T02:44:42.973Z,15.75
2022-10-18T02:47:10.883Z,17.08
2022-10-18T02:49:37.665Z,17.75
2022-10-18T02:52:04.614Z,16.75
2022-10-18T02:54:31.480Z,17.92
2022-10-18T02:56:58.249Z,17.35
2022-10-18T02:59:25.014Z,16.80
2022-10-18T03:01:51.849Z,18.90
2022-10-18T03:04:18.770Z,17.05
2022-10-18T03:06:45.693Z,16.48
2022-10-18T03:09:12.470Z,16.23
2022-10-18T03:11:39.251Z,16.95
2022-10-18T03:14:05.934Z,16.90
2022-10-18T03:16:33.934Z,17.58
2022-10-18T03:19:00.774Z,16.15
2022-10-18T03:21:27.519Z,16.73
2022-10-18T03:23:54.266Z,16.83
2022-10-18T03:26:21.693Z,15.93
2022-10-18T03:28:49.154Z,15.75
2022-10-18T03:31:16.006Z,14.88
2022-10-18T03:33:42.747Z,16.40
2022-10-18T03:36:09.679Z,15.43
2022-10-18T03:38:36.387Z,16.23
2022-10-18T03:41:03.114Z,16.30
2022-10-18T03:43:30.049Z,16.30
2022-10-18T03:45:56.860Z,15.88
2022-10-18T03:48:24.163Z,15.57
2022-10-18T03:50:50.934Z,15.38
2022-10-18T03:53:17.689Z,16.35
2022-10-18T03:55:44.495Z,15.50
2022-10-18T03:58:11.582Z,16.55
2022-10-18T04:00:38.405Z,16.60
2022-10-18T04:03:05.348Z,16.02
2022-10-18T04:05:32.272Z,15.98
2022-10-18T04:07:58.991Z,17.42
2022-10-18T04:10:26.306Z,16.75
2022-10-18T04:12:53.011Z,16.75
2022-10-18T04:15:20.541Z,16.70
2022-10-18T04:17:47.403Z,15.70
2022-10-18T04:20:14.359Z,16.42
2022-10-18T04:22:41.142Z,15.75
2022-10-18T04:25:08.148Z,16.13
2022-10-18T04:27:35.757Z,17.05
2022-10-18T04:30:02.655Z,16.70
2022-10-18T04:32:29.459Z,15.85
2022-10-18T04:34:56.445Z,16.77
2022-10-18T04:37:23.257Z,16.30
2022-10-18T04:39:53.430Z,16.55
2022-10-18T04:42:21.719Z,16.77
2022-10-18T04:44:48.529Z,17.85
2022-10-18T04:47:15.949Z,19.77
2022-10-18T04:49:42.774Z,20.25
2022-10-18T04:52:09.945Z,18.95
2022-10-18T04:54:37.017Z,19.05
2022-10-18T04:57:04.261Z,17.60
2022-10-18T04:59:31.062Z,18.27
2022-10-18T05:01:57.999Z,16.65
2022-10-18T05:04:24.845Z,15.85
2022-10-18T05:06:51.674Z,16.27
2022-10-18T05:09:18.529Z,16.52
2022-10-18T05:11:45.274Z,16.95
2022-10-18T05:14:12.020Z,18.00
2022-10-18T05:16:38.749Z,17.90
2022-10-18T05:19:05.968Z,19.33
2022-10-18T05:21:33.207Z,17.75
2022-10-18T05:23:59.918Z,18.00
2022-10-18T05:26:27.338Z,17.58
2022-10-18T05:28:54.303Z,17.70
2022-10-18T05:31:21.537Z,17.55
2022-10-18T05:33:48.293Z,17.40
2022-10-18T05:36:15.329Z,17.35
2022-10-18T05:38:43.971Z,17.33
2022-10-18T05:41:11.610Z,16.67
2022-10-18T05:43:39.569Z,16.60
2022-10-18T05:46:13.544Z,17.85
2022-10-18T05:48:43.468Z,17.40
2022-10-18T05:51:10.228Z,18.00
2022-10-18T05:53:37.977Z,17.23
2022-10-18T05:56:06.104Z,17.70
2022-10-18T05:58:33.612Z,17.50
2022-10-18T06:01:01.872Z,18.40
2022-10-18T06:03:30.643Z,17.08
2022-10-18T06:06:10.908Z,16.27
2022-10-18T06:08:39.009Z,15.38
2022-10-18T06:11:13.990Z,15.80
2022-10-18T06:13:46.788Z,15.38
2022-10-18T06:16:15.831Z,15.77
2022-10-18T06:18:43.113Z,16.67
2022-10-18T06:21:10.034Z,16.80
2022-10-18T06:23:36.883Z,16.65
2022-10-18T06:26:06.383Z,17.70
2022-10-18T06:28:35.879Z,16.52
2022-10-18T06:31:03.676Z,17.27
2022-10-18T06:33:35.734Z,17.77
2022-10-18T06:36:05.476Z,18.17
2022-10-18T06:38:32.843Z,18.25
2022-10-18T06:41:00.113Z,17.65
2022-10-18T06:43:27.098Z,17.15
2022-10-18T06:45:54.465Z,18.50
2022-10-18T06:48:22.169Z,20.25
2022-10-18T06:51:08.406Z,18.25
2022-10-18T06:53:44.073Z,18.77
2022-10-18T06:56:15.824Z,18.98
2022-10-18T06:58:42.618Z,17.67
2022-10-18T07:01:15.977Z,18.48
2022-10-18T07:03:43.787Z,20.23
2022-10-18T07:06:12.745Z,18.92
2022-10-18T07:08:40.308Z,18.55
2022-10-18T07:11:08.685Z,19.80
2022-10-18T07:13:35.654Z,18.48
2022-10-18T07:16:06.210Z,18.98
2022-10-18T07:18:34.742Z,18.45
2022-10-18T07:21:03.476Z,21.55
2022-10-18T07:23:32.128Z,20.73
2022-10-18T07:25:59.080Z,20.55
2022-10-18T07:28:26.139Z,21.48
2022-10-18T07:30:52.935Z,22.77
2022-10-18T07:33:20.775Z,22.85
2022-10-18T07:35:48.228Z,25.13
2022-10-18T07:38:14.955Z,24.63
2022-10-18T07:40:41.726Z,25.17
2022-10-18T07:43:11.997Z,27.77
2022-10-18T07:45:38.965Z,25.60
2022-10-18T07:48:05.890Z,27.88
2022-10-18T07:50:32.794Z,28.02
2022-10-18T07:52:59.556Z,28.45
2022-10-18T07:55:26.272Z,28.50
2022-10-18T07:57:53.559Z,27.52
2022-10-18T08:00:20.491Z,27.90
2022-10-18T08:02:48.268Z,29.88
2022-10-18T08:05:15.088Z,27.83
2022-10-18T08:07:41.777Z,25.70
2022-10-18T08:10:08.930Z,27.38
2022-10-18T08:12:35.801Z,27.27
2022-10-18T08:15:02.594Z,25.92
2022-10-18T08:17:31.219Z,27.17
2022-10-18T08:20:11.437Z,26.00
2022-10-18T08:22:39.304Z,25.37
2022-10-18T08:25:06.594Z,24.92
2022-10-18T08:27:33.755Z,28.10
2022-10-18T08:30:02.136Z,26.83
2022-10-18T08:32:29.814Z,26.30
2022-10-18T08:34:56.784Z,23.85
2022-10-18T08:37:23.562Z,24.42
2022-10-18T08:39:50.317Z,24.15
2022-10-18T08:42:19.851Z,24.65
2022-10-18T08:44:49.462Z,25.20
2022-10-18T08:47:19.681Z,25.70
2022-10-18T08:49:58.010Z,23.77
2022-10-18T08:52:46.221Z,24.20
2022-10-18T08:55:29.518Z,23.45
2022-10-18T08:57:59.481Z,25.60
2022-10-18T09:00:31.009Z,23.95
2022-10-18T09:02:57.758Z,24.85
2022-10-18T09:05:59.954Z,24.73
2022-10-18T09:11:26.966Z,22.65
2022-10-18T09:14:33.726Z,23.90
2022-10-18T09:17:15.940Z,24.00
2022-10-18T09:20:05.053Z,23.10
2022-10-18T09:22:46.936Z,23.85
2022-10-18T09:27:53.916Z,24.60
2022-10-18T09:30:42.630Z,24.92
2022-10-18T09:33:24.448Z,28.95
2022-10-18T09:35:57.140Z,24.73
2022-10-18T09:38:30.895Z,25.33
2022-10-18T09:41:02.371Z,24.50
2022-10-18T09:44:00.757Z,25.50
2022-10-18T09:46:32.404Z,27.95
2022-10-18T09:49:04.970Z,29.90
2022-10-18T09:51:37.782Z,28.20
2022-10-18T09:54:24.122Z,27.13
2022-10-18T09:57:01.252Z,28.42
2022-10-18T09:59:40.541Z,27.23
2022-10-18T10:02:12.970Z,26.13
2022-10-18T10:04:39.768Z,33.25
2022-10-18T10:07:09.448Z,40.55
2022-10-18T10:09:49.580Z,42.60
2022-10-18T10:12:37.587Z,41.60
2022-10-18T10:15:28.253Z,27.10
2022-10-18T10:18:07.032Z,27.98
2022-10-18T10:20:44.383Z,28.25
2022-10-18T10:23:21.223Z,28.50
2022-10-18T10:25:53.515Z,27.42
2022-10-18T10:28:24.331Z,25.23
2022-10-18T10:30:51.211Z,27.83
2022-10-18T10:33:36.595Z,27.02
2022-10-18T10:36:15.556Z,25.70
2022-10-18T10:38:42.385Z,24.65
2022-10-18T10:41:23.557Z,24.20
2022-10-18T10:43:51.297Z,24.13
2022-10-18T10:46:20.008Z,23.73
2022-10-18T10:48:50.846Z,22.50
2022-10-18T10:51:39.000Z,22.23
2022-10-18T10:54:14.021Z,21.65
2022-10-18T10:57:05.550Z,21.65
2022-10-18T10:59:43.714Z,22.30
2022-10-18T11:02:20.696Z,22.40
2022-10-18T11:04:57.771Z,22.20
2022-10-18T11:07:30.681Z,21.88
2022-10-18T11:10:00.535Z,21.42
2022-10-18T11:12:35.700Z,20.55
2022-10-18T11:15:10.958Z,19.27
2022-10-18T11:17:51.455Z,18.48
2022-10-18T11:20:38.520Z,18.08
2022-10-18T11:23:12.485Z,17.40
2022-10-18T11:25:57.415Z,16.17
2022-10-18T11:28:39.124Z,15.85
2022-10-18T11:31:15.130Z,17.00
2022-10-18T11:34:08.179Z,15.93
2022-10-18T11:36:57.836Z,16.42
2022-10-18T11:39:55.581Z,14.38
2022-10-18T11:42:42.120Z,14.80
2022-10-18T11:45:27.632Z,14.55
2022-10-18T11:48:15.316Z,12.80
2022-10-18T11:51:02.289Z,13.73
2022-10-18T11:53:40.857Z,13.30
2022-10-18T11:56:38.059Z,10.02
2022-10-18T11:59:37.742Z,13.77
2022-10-18T12:02:39.458Z,12.68
2022-10-18T12:05:24.585Z,13.45
2022-10-18T12:07:59.276Z,15.55
2022-10-18T12:10:44.372Z,15.52
2022-10-18T12:13:35.265Z,18.25
2022-10-18T12:16:05.371Z,21.25
2022-10-18T12:18:32.972Z,25.23
2022-10-18T12:21:01.017Z,26.35
2022-10-18T12:23:44.356Z,27.88
2022-10-18T12:26:11.508Z,29.88
2022-10-18T12:29:05.503Z,33.53
2022-10-18T12:32:12.769Z,32.33
2022-10-18T12:35:08.921Z,34.70
2022-10-18T12:38:00.485Z,34.55
2022-10-18T12:40:35.634Z,33.53
2022-10-18T12:43:09.642Z,33.13
2022-10-18T12:45:53.042Z,33.40
2022-10-18T12:48:38.692Z,35.03
2022-10-18T12:51:06.911Z,35.85
2022-10-18T12:53:34.615Z,37.65
2022-10-18T12:56:29.327Z,38.67
2022-10-18T12:59:14.528Z,40.63
2022-10-18T13:02:07.675Z,37.50
2022-10-18T13:04:35.443Z,39.75
2022-10-18T13:07:05.325Z,38.75
2022-10-18T13:09:37.058Z,40.60
2022-10-18T13:12:09.757Z,39.03
2022-10-18T13:14:59.316Z,61.60
2022-10-18T13:18:01.222Z,36.90
2022-10-18T13:20:42.635Z,39.03
2022-10-18T13:23:27.769Z,37.72
2022-10-18T13:26:13.916Z,38.58
2022-10-18T13:28:46.244Z,37.88
2022-10-18T13:31:34.635Z,35.97
2022-10-18T13:34:30.337Z,37.85
2022-10-18T13:37:21.550Z,37.78
2022-10-18T13:39:48.578Z,36.72
2022-10-18T13:42:15.260Z,36.65
2022-10-18T13:44:44.726Z,37.15
2022-10-18T13:47:31.908Z,37.65
2022-10-18T13:50:17.883Z,37.55
2022-10-18T13:52:53.489Z,38.13
2022-10-18T13:55:44.207Z,38.17
2022-10-18T13:58:21.226Z,39.42
2022-10-18T14:01:38.922Z,40.60
2022-10-18T14:04:27.905Z,39.08
2022-10-18T14:07:02.189Z,38.92
2022-10-18T14:09:44.423Z,38.40
2022-10-18T14:12:41.152Z,38.72
2022-10-18T14:15:16.164Z,40.42
2022-10-18T14:17:52.614Z,42.10
2022-10-18T14:20:48.944Z,41.20
2022-10-18T14:23:21.439Z,41.00
2022-10-18T14:28:31.575Z,40.63
2022-10-18T14:31:15.257Z,41.95
2022-10-18T14:33:58.402Z,41.85
2022-10-18T14:36:36.153Z,41.55
2022-10-18T14:39:05.826Z,42.38
2022-10-18T14:41:40.960Z,43.55
2022-10-18T14:44:17.624Z,43.67
2022-10-18T14:46:51.381Z,43.40
2022-10-18T14:49:20.379Z,44.72
2022-10-18T14:51:50.789Z,43.33
2022-10-18T14:54:29.140Z,43.80
2022-10-18T14:57:03.283Z,41.17
2022-10-18T14:59:33.468Z,43.40
2022-10-18T15:02:19.280Z,42.78
2022-10-18T15:04:47.404Z,42.53
2022-10-18T15:07:18.033Z,40.53
2022-10-18T15:09:45.631Z,42.40
2022-10-18T15:12:15.481Z,47.83
2022-10-18T15:14:43.593Z,44.50
2022-10-18T15:17:20.581Z,43.17
2022-10-18T15:19:55.018Z,44.78
2022-10-18T15:22:32.686Z,42.90
2022-10-18T15:25:05.926Z,42.08
2022-10-18T15:27:36.797Z,41.33
2022-10-18T15:30:18.757Z,44.65
2022-10-18T15:35:27.010Z,42.83
2022-10-18T15:37:55.941Z,41.90
2022-10-18T15:40:22.728Z,40.67
2022-10-18T15:42:55.059Z,40.95
2022-10-18T15:45:24.576Z,41.40
2022-10-18T15:48:23.870Z,41.70
2022-10-18T15:51:04.949Z,42.95
2022-10-18T15:53:55.022Z,42.50
2022-10-18T15:56:35.891Z,40.72
2022-10-18T15:59:06.402Z,40.30
2022-10-18T16:01:42.671Z,39.97
2022-10-18T16:04:18.542Z,41.90
2022-10-18T16:06:45.377Z,42.20
2022-10-18T16:09:17.194Z,41.92
2022-10-18T16:11:44.049Z,43.13
2022-10-18T16:14:10.974Z,42.30
2022-10-18T16:16:39.222Z,41.00
2022-10-18T16:19:06.439Z,43.75
2022-10-18T16:21:39.022Z,41.88
2022-10-18T16:24:06.475Z,45.03
2022-10-18T16:26:33.956Z,47.10
2022-10-18T16:29:01.673Z,44.10
2022-10-18T16:31:31.779Z,45.60
2022-10-18T16:33:59.275Z,45.33
2022-10-18T16:36:33.617Z,44.45
2022-10-18T16:39:03.882Z,44.25
2022-10-18T16:41:30.693Z,45.15
2022-10-18T16:43:57.387Z,43.42
2022-10-18T16:46:34.900Z,46.25
2022-10-18T16:49:02.146Z,44.00
2022-10-18T16:51:29.179Z,43.53
2022-10-18T16:53:55.924Z,44.30
2022-10-18T16:56:28.504Z,42.42
2022-10-18T16:58:55.405Z,46.28
2022-10-18T17:01:23.787Z,46.35
2022-10-18T17:03:52.189Z,45.75
2022-10-18T17:06:26.174Z,47.42
2022-10-18T17:08:53.726Z,45.28
2022-10-18T17:11:21.984Z,46.83
2022-10-18T17:13:48.742Z,45.33
2022-10-18T17:16:30.096Z,45.70
2022-10-18T17:18:58.764Z,43.47
2022-10-18T17:21:26.582Z,45.75
2022-10-18T17:23:53.711Z,43.47
2022-10-18T17:26:30.310Z,45.05
2022-10-18T17:29:03.792Z,47.53
2022-10-18T17:31:31.978Z,45.30
2022-10-18T17:34:01.477Z,44.80
2022-10-18T17:36:28.962Z,46.65
2022-10-18T17:38:56.210Z,47.88
2022-10-18T17:41:23.032Z,47.78
2022-10-18T17:43:49.844Z,47.95
2022-10-18T17:46:18.096Z,48.20
2022-10-18T17:48:45.533Z,48.15
2022-10-18T17:51:15.290Z,43.05
2022-10-18T17:53:42.393Z,47.30
2022-10-18T17:56:11.335Z,44.00
2022-10-18T17:58:38.326Z,45.35
2022-10-18T18:01:16.802Z,43.22
2022-10-18T18:03:44.008Z,45.00
2022-10-18T18:06:23.139Z,47.65
2022-10-18T18:08:50.693Z,45.10
2022-10-18T18:11:18.357Z,45.22
2022-10-18T18:13:45.699Z,45.50
2022-10-18T18:16:21.726Z,45.58
2022-10-18T18:18:53.805Z,45.20
2022-10-18T18:21:21.738Z,43.33
2022-10-18T18:23:51.889Z,43.60
2022-10-18T18:26:22.212Z,44.97
2022-10-18T18:28:49.762Z,43.42
2022-10-18T18:31:24.917Z,43.95
2022-10-18T18:33:53.151Z,41.42
2022-10-18T18:36:25.215Z,42.58
2022-10-18T18:38:57.005Z,43.70
2022-10-18T18:41:26.452Z,41.78
2022-10-18T18:44:00.810Z,42.97
2022-10-18T18:46:37.160Z,42.25
2022-10-18T18:49:05.326Z,41.08
2022-10-18T18:51:33.284Z,43.25
2022-10-18T18:54:02.531Z,42.50
2022-10-18T18:56:29.358Z,41.65
2022-10-18T18:59:01.507Z,39.50
2022-10-18T19:01:40.472Z,35.38
2022-10-18T19:04:09.065Z,41.33
2022-10-18T19:06:38.696Z,41.58
2022-10-18T19:09:19.232Z,42.25
2022-10-18T19:11:47.631Z,38.85
2022-10-18T19:14:17.659Z,42.25
2022-10-18T19:16:48.511Z,40.35
2022-10-18T19:19:18.041Z,42.10
2022-10-18T19:21:56.002Z,43.65
2022-10-18T19:24:27.061Z,40.65
2022-10-18T19:26:56.762Z,40.17
2022-10-18T19:29:26.462Z,43.55
2022-10-18T19:31:55.960Z,41.75
2022-10-18T19:34:24.132Z,40.00
2022-10-18T19:36:51.876Z,40.70
2022-10-18T19:39:27.659Z,42.08
2022-10-18T19:41:56.356Z,41.72
2022-10-18T19:44:24.684Z,40.33
2022-10-18T19:46:52.032Z,41.67
2022-10-18T19:49:19.229Z,40.50
2022-10-18T19:51:46.865Z,42.75
2022-10-18T19:54:17.753Z,42.50
2022-10-18T19:56:44.645Z,39.90
2022-10-18T19:59:16.390Z,39.42
2022-10-18T20:01:43.717Z,38.08
2022-10-18T20:04:12.138Z,39.40
2022-10-18T20:06:39.721Z,41.42
2022-10-18T20:09:08.586Z,40.10
2022-10-18T20:11:36.021Z,36.78
2022-10-18T20:14:03.402Z,39.22
2022-10-18T20:16:32.968Z,39.20
2022-10-18T20:19:05.035Z,38.53
2022-10-18T20:21:35.716Z,41.15
2022-10-18T20:24:04.634Z,39.95
2022-10-18T20:26:32.087Z,39.80
2022-10-18T20:28:59.877Z,42.58
2022-10-18T20:31:32.172Z,40.15
2022-10-18T20:34:02.188Z,39.42
2022-10-18T20:36:30.981Z,42.83
2022-10-18T20:38:58.197Z,41.75
2022-10-18T20:41:34.193Z,41.58
2022-10-18T20:44:11.371Z,42.38
2022-10-18T20:46:42.080Z,41.83
2022-10-18T20:49:11.007Z,38.83
2022-10-18T20:51:37.708Z,43.13
2022-10-18T20:56:40.697Z,41.63
2022-10-18T20:59:10.520Z,43.95
2022-10-18T21:01:39.032Z,43.70
2022-10-18T21:04:08.231Z,42.42
2022-10-18T21:06:37.916Z,43.13
2022-10-18T21:09:07.255Z,43.65
2022-10-18T21:11:39.667Z,42.13
2022-10-18T21:14:07.886Z,44.47
2022-10-18T21:16:36.182Z,43.63
2022-10-18T21:19:07.719Z,42.75
2022-10-18T21:21:34.827Z,43.90
2022-10-18T21:24:05.337Z,42.85
2022-10-18T21:26:34.648Z,42.33
2022-10-18T21:29:01.466Z,44.58
2022-10-18T21:31:34.719Z,44.55
2022-10-18T21:34:04.402Z,42.28
2022-10-18T21:36:33.278Z,44.67
2022-10-18T21:39:00.095Z,42.78
2022-10-18T21:41:27.034Z,44.85
2022-10-18T21:43:55.125Z,40.95
2022-10-18T21:46:24.005Z,44.47
2022-10-18T21:48:52.769Z,43.42
2022-10-18T21:51:22.373Z,41.17
2022-10-18T21:53:51.256Z,44.45
2022-10-18T21:56:20.063Z,44.72
2022-10-18T21:58:46.917Z,45.30
2022-10-18T22:01:21.876Z,45.00
2022-10-18T22:03:50.495Z,47.13
2022-10-18T22:06:18.016Z,45.05
2022-10-18T22:08:49.227Z,46.67
2022-10-18T22:11:17.020Z,44.45
2022-10-18T22:13:43.870Z,46.90
2022-10-18T22:16:14.350Z,47.75
2022-10-18T22:18:41.914Z,46.20
2022-10-18T22:21:10.768Z,45.72
2022-10-18T22:23:43.258Z,45.20
2022-10-18T22:26:16.925Z,44.22
2022-10-18T22:28:45.061Z,48.47
2022-10-18T22:31:20.696Z,49.60
2022-10-18T22:33:52.437Z,45.20
2022-10-18T22:36:19.144Z,45.92
2022-10-18T22:38:45.925Z,47.85
2022-10-18T22:41:12.816Z,47.58
2022-10-18T22:43:40.063Z,49.72
2022-10-18T22:46:09.610Z,45.67
2022-10-18T22:48:36.611Z,47.88
2022-10-18T22:51:04.155Z,49.70
2022-10-18T22:53:32.138Z,47.00
2022-10-18T22:55:59.048Z,46.45
2022-10-18T22:58:26.012Z,47.90
2022-10-18T23:01:01.047Z,50.80
2022-10-18T23:03:27.791Z,49.28
2022-10-18T23:05:54.733Z,49.70
2022-10-18T23:08:21.654Z,46.92
2022-10-18T23:10:52.050Z,48.80
2022-10-18T23:13:18.827Z,47.80
2022-10-18T23:15:45.623Z,49.95
2022-10-18T23:18:12.377Z,49.40
2022-10-18T23:20:39.159Z,48.20
2022-10-18T23:23:05.903Z,51.05
2022-10-18T23:25:36.516Z,51.55
2022-10-18T23:28:04.473Z,51.67
2022-10-18T23:30:31.932Z,51.13
2022-10-18T23:32:58.726Z,50.40
2022-10-18T23:35:25.506Z,53.83
2022-10-18T23:37:52.854Z,52.40
2022-10-18T23:40:19.795Z,50.35
2022-10-18T23:42:46.556Z,50.72
2022-10-18T23:45:13.338Z,53.90
2022-10-18T23:47:40.064Z,51.47
2022-10-18T23:50:07.200Z,53.72
2022-10-18T23:52:33.937Z,53.38
2022-10-18T23:55:00.678Z,52.22
2022-10-18T23:57:27.666Z,51.58
2022-10-18T23:59:54.439Z,49.67
